Time;durP1;ratioP1;P1;durP2;ratioP2;P2;SDS_P1;SDS_P2;PMS_P1;PMS_P2;Temp;Humidity;BMP_temperature;BMP_pressure;BME280_temperature;BME280_humidity;BME280_pressure;Samples;Min_cycle;Max_cycle;Signal;HPM_P1;HPM_P2
2021/12/13 00:00:58;;;;;;;;;;;;;;;22.74;18.69;100981.34;5095325;28;20393;-70
2021/12/13 00:03:29;;;;;;;;;;;;;;;22.71;18.75;100974.47;5095506;28;19916;-70
2021/12/13 00:06:07;;;;;;;;;;;;;;;22.71;18.72;100981.84;5094797;28;20385;-70
2021/12/13 00:08:34;;;;;;;;;;;;;;;22.71;18.83;100979.94;5095080;28;20413;-70
2021/12/13 00:11:13;;;;;;;;;;;;;;;22.69;18.75;100973.91;5095339;28;19916;-70
2021/12/13 00:13:40;;;;;;;;;;;;;;;22.71;18.57;100970.94;5095289;28;19970;-70
2021/12/13 00:16:05;;;;;;;;;;;;;;;22.71;18.56;100979.13;5094872;28;19923;-71
2021/12/13 00:18:35;;;;;;;;;;;;;;;22.73;18.67;100971.50;5076816;28;20012;-70
2021/12/13 00:21:07;;;;;;;;;;;;;;;22.69;18.55;100974.72;5094779;28;19923;-70
2021/12/13 00:23:37;;;;;;;;;;;;;;;22.71;18.71;100970.94;5095127;28;19927;-70
2021/12/13 00:26:03;;;;;;;;;;;;;;;22.71;18.56;100971.75;5094897;28;19920;-70
2021/12/13 00:28:31;;;;;;;;;;;;;;;22.71;18.54;100970.94;5094759;28;19923;-71
2021/12/13 00:31:00;;;;;;;;;;;;;;;22.68;18.59;100970.38;5094756;28;19921;-70
2021/12/13 00:33:35;;;;;;;;;;;;;;;22.71;18.58;100968.22;5094811;28;19923;-70
2021/12/13 00:36:12;;;;;;;;;;;;;;;22.71;18.55;100979.13;5094985;28;19916;-70
2021/12/13 00:38:41;;;;;;;;;;;;;;;22.71;18.62;100979.13;5088605;28;20350;-70
2021/12/13 00:41:14;;;;;;;;;;;;;;;22.67;18.65;100974.16;5074567;28;19939;-71
2021/12/13 00:43:42;;;;;;;;;;;;;;;22.68;18.59;100989.44;5074724;28;19974;-70
2021/12/13 00:46:08;;;;;;;;;;;;;;;22.71;18.69;100979.13;5074332;28;19935;-70
2021/12/13 00:48:34;;;;;;;;;;;;;;;22.72;18.66;100980.78;5074519;28;19952;-70
2021/12/13 00:51:01;;;;;;;;;;;;;;;22.73;18.55;100971.50;5074416;28;20263;-70
2021/12/13 00:53:26;;;;;;;;;;;;;;;22.73;18.60;100976.94;5056512;28;19923;-71
2021/12/13 00:55:51;;;;;;;;;;;;;;;22.74;18.60;100978.59;5074428;28;19916;-71
2021/12/13 00:58:17;;;;;;;;;;;;;;;22.74;18.49;100978.59;5056201;28;19923;-71
2021/12/13 01:00:45;;;;;;;;;;;;;;;22.71;18.44;100982.66;5074287;28;20254;-71
2021/12/13 01:03:15;;;;;;;;;;;;;;;22.68;18.63;100991.34;5074355;28;19917;-71
2021/12/13 01:05:49;;;;;;;;;;;;;;;22.65;18.72;100976.31;5074385;28;19916;-71
2021/12/13 01:08:33;;;;;;;;;;;;;;;22.69;18.71;100980.19;5073986;28;19916;-71
2021/12/13 01:11:11;;;;;;;;;;;;;;;22.68;18.63;100978.56;5074134;28;19928;-71
2021/12/13 01:13:47;;;;;;;;;;;;;;;22.69;18.49;100977.44;5073890;28;20359;-71
2021/12/13 01:16:32;;;;;;;;;;;;;;;22.68;18.61;100977.72;5056274;28;19921;-70
2021/12/13 01:19:03;;;;;;;;;;;;;;;22.71;18.35;100973.66;5074349;28;19923;-70
2021/12/13 01:21:41;;;;;;;;;;;;;;;22.71;18.40;100976.38;5073950;28;19927;-70
2021/12/13 01:24:20;;;;;;;;;;;;;;;22.67;18.39;100967.91;5057065;28;19917;-70
2021/12/13 01:26:46;;;;;;;;;;;;;;;22.67;18.49;100966.00;5073819;28;20390;-70
2021/12/13 01:29:24;;;;;;;;;;;;;;;22.73;18.44;100974.22;5074660;28;19932;-70
2021/12/13 01:31:50;;;;;;;;;;;;;;;22.69;18.38;100972.00;5074343;28;19923;-70
2021/12/13 01:34:15;;;;;;;;;;;;;;;22.67;18.32;100974.16;5074119;28;19916;-71
2021/12/13 01:36:46;;;;;;;;;;;;;;;22.66;18.44;100983.44;5073480;28;19923;-71
2021/12/13 01:39:13;;;;;;;;;;;;;;;22.62;18.37;100982.28;5083953;28;20061;-71
2021/12/13 01:41:40;;;;;;;;;;;;;;;22.67;18.51;100978.81;5094231;28;20006;-71
2021/12/13 01:44:10;;;;;;;;;;;;;;;22.68;18.28;100975.00;5094458;28;19924;-71
2021/12/13 01:46:40;;;;;;;;;;;;;;;22.69;18.37;100976.63;5094124;28;19962;-71
2021/12/13 01:49:06;;;;;;;;;;;;;;;22.74;18.17;100978.59;5093976;28;19916;-71
2021/12/13 01:51:33;;;;;;;;;;;;;;;22.74;18.12;100984.06;5094149;28;20285;-71
2021/12/13 01:53:58;;;;;;;;;;;;;;;22.72;18.27;100978.03;5093540;28;19923;-71
2021/12/13 01:56:46;;;;;;;;;;;;;;;22.70;18.16;100978.31;5093692;28;19916;-71
2021/12/13 02:02:01;;;;;;;;;;;;;;;22.70;18.09;100983.75;5094020;28;19916;-71
2021/12/13 02:04:26;;;;;;;;;;;;;;;22.69;18.03;100972.00;5093797;28;19916;-71
2021/12/13 02:06:55;;;;;;;;;;;;;;;22.72;18.01;100975.31;5093649;28;19927;-71
2021/12/13 02:09:24;;;;;;;;;;;;;;;22.71;18.15;100973.66;5093594;28;19955;-71
2021/12/13 02:11:50;;;;;;;;;;;;;;;22.71;18.22;100973.66;5094297;28;19920;-71
2021/12/13 02:14:18;;;;;;;;;;;;;;;22.71;18.09;100977.19;5093732;28;19916;-71
2021/12/13 02:16:59;;;;;;;;;;;;;;;22.74;18.17;100973.16;5093840;28;19952;-71
2021/12/13 02:19:31;;;;;;;;;;;;;;;22.69;18.27;100969.28;5094041;28;19939;-71
2021/12/13 02:22:02;;;;;;;;;;;;;;;22.66;18.16;100977.97;5097066;28;19991;-71
2021/12/13 02:24:28;;;;;;;;;;;;;;;22.71;18.15;100984.56;5097324;28;19968;-71
2021/12/13 02:26:57;;;;;;;;;;;;;;;22.68;18.08;100986.72;5080011;28;20011;-71
2021/12/13 02:29:23;;;;;;;;;;;;;;;22.69;18.15;100985.63;5079979;28;19920;-71
2021/12/13 02:31:48;;;;;;;;;;;;;;;22.71;18.31;100979.13;5097342;28;19916;-71
2021/12/13 02:34:14;;;;;;;;;;;;;;;22.68;18.31;100981.28;5097209;28;20398;-71
2021/12/13 02:36:50;;;;;;;;;;;;;;;22.68;18.34;100981.28;5096962;28;20319;-71
2021/12/13 02:39:16;;;;;;;;;;;;;;;22.67;18.30;100984.25;5087068;28;19943;-71
2021/12/13 02:41:42;;;;;;;;;;;;;;;22.67;18.46;100979.63;5077047;28;19916;-71
2021/12/13 02:44:15;;;;;;;;;;;;;;;22.72;18.31;100975.31;5076871;28;19970;-71
2021/12/13 02:46:44;;;;;;;;;;;;;;;22.70;18.36;100978.31;5076511;28;19955;-71
2021/12/13 02:49:11;;;;;;;;;;;;;;;22.68;18.27;100970.38;5076740;28;20271;-71
2021/12/13 02:51:37;;;;;;;;;;;;;;;22.67;18.31;100968.72;5079315;28;20321;-71
2021/12/13 02:54:06;;;;;;;;;;;;;;;22.69;18.24;100965.75;5078503;28;19943;-71
2021/12/13 02:56:35;;;;;;;;;;;;;;;22.69;18.23;100963.84;5094883;28;19924;-71
2021/12/13 02:59:01;;;;;;;;;;;;;;;22.68;18.30;100970.38;5081132;28;19973;-71
2021/12/13 03:01:34;;;;;;;;;;;;;;;22.70;18.13;100970.13;5077994;28;19920;-71
2021/12/13 03:04:00;;;;;;;;;;;;;;;22.71;18.20;100970.94;5076646;28;19916;-71
2021/12/13 03:06:27;;;;;;;;;;;;;;;22.69;18.17;100969.28;5076597;28;19943;-71
2021/12/13 03:08:56;;;;;;;;;;;;;;;22.73;18.27;100971.50;5077349;28;19924;-71
2021/12/13 03:11:24;;;;;;;;;;;;;;;22.74;18.16;100962.25;5076448;28;19916;-71
2021/12/13 03:13:52;;;;;;;;;;;;;;;22.71;18.07;100974.47;5076184;28;19923;-71
2021/12/13 03:16:19;;;;;;;;;;;;;;;22.69;18.27;100972.00;5058230;28;20314;-71
2021/12/13 03:18:47;;;;;;;;;;;;;;;22.71;18.25;100968.22;5058396;28;20294;-71
2021/12/13 03:21:13;;;;;;;;;;;;;;;22.70;18.10;100967.41;5058040;28;20464;-71
2021/12/13 03:23:56;;;;;;;;;;;;;;;22.70;18.13;100961.94;5076378;28;19916;-71
2021/12/13 03:26:21;;;;;;;;;;;;;;;22.70;18.13;100967.41;5076292;28;19923;-71
2021/12/13 03:28:56;;;;;;;;;;;;;;;22.72;18.21;100964.44;5076126;28;19955;-71
2021/12/13 03:31:26;;;;;;;;;;;;;;;22.72;18.14;100969.88;5075976;28;20375;-71
2021/12/13 03:33:55;;;;;;;;;;;;;;;22.72;18.09;100969.88;5058616;28;19987;-71
2021/12/13 03:36:22;;;;;;;;;;;;;;;22.71;18.10;100973.66;5076625;28;19917;-71
2021/12/13 03:38:49;;;;;;;;;;;;;;;22.71;18.04;100969.03;5080943;28;19923;-71
2021/12/13 03:41:15;;;;;;;;;;;;;;;22.66;18.02;100967.09;5096207;28;19916;-71
2021/12/13 03:43:45;;;;;;;;;;;;;;;22.71;18.06;100958.13;5096298;28;19924;-71
2021/12/13 03:46:11;;;;;;;;;;;;;;;22.71;17.96;100968.22;5095766;28;20370;-71
2021/12/13 03:48:36;;;;;;;;;;;;;;;22.71;18.02;100968.22;5095957;28;19923;-71
2021/12/13 03:51:03;;;;;;;;;;;;;;;22.69;17.84;100972.00;5095860;28;19920;-71
2021/12/13 03:53:29;;;;;;;;;;;;;;;22.71;18.06;100968.22;5077661;28;19916;-71
2021/12/13 03:56:02;;;;;;;;;;;;;;;22.72;17.97;100964.44;5095843;28;20406;-71
2021/12/13 03:58:27;;;;;;;;;;;;;;;22.69;17.93;100966.56;5095848;28;19923;-71
2021/12/13 04:00:52;;;;;;;;;;;;;;;;;;5096639;28;19916;-71
2021/12/13 04:03:18;;;;;;;;;;;;;;;22.68;17.90;100962.19;5096881;28;19939;-71
2021/12/13 04:05:43;;;;;;;;;;;;;;;22.75;18.03;100961.16;5096700;28;20294;-71
2021/12/13 04:08:09;;;;;;;;;;;;;;;22.80;17.94;100964.78;5097606;28;19958;-71
2021/12/13 04:10:36;;;;;;;;;;;;;;;22.86;17.79;100965.66;5097385;28;19969;-71
2021/12/13 04:13:08;;;;;;;;;;;;;;;22.87;17.86;100967.31;5096807;28;20370;-71
2021/12/13 04:16:01;;;;;;;;;;;;;;;22.90;17.69;100958.63;5097076;28;19951;-72
2021/12/13 04:19:06;;;;;;;;;;;;;;;22.90;17.62;100960.53;5096375;28;20309;-72
2021/12/13 04:21:26;;;;;;;;;;;;;;;22.98;17.70;100963.63;5096341;28;19920;-71
2021/12/13 04:23:53;;;;;;;;;;;;;;;23.01;17.48;100968.56;5095974;28;19924;-71
2021/12/13 04:26:18;;;;;;;;;;;;;;;23.10;17.45;100954.50;5096909;28;19916;-71
2021/12/13 04:28:46;;;;;;;;;;;;;;;23.14;17.64;100963.81;5095579;28;20301;-71
2021/12/13 04:31:16;;;;;;;;;;;;;;;23.20;17.50;100946.41;5096047;28;20435;-71
2021/12/13 04:33:45;;;;;;;;;;;;;;;23.28;17.37;100951.38;5096268;28;19922;-71
2021/12/13 04:36:15;;;;;;;;;;;;;;;23.35;17.19;100952.03;5096350;28;20035;-71
2021/12/13 04:38:51;;;;;;;;;;;;;;;23.44;17.13;100950.44;5092434;28;19917;-71
2021/12/13 04:41:26;;;;;;;;;;;;;;;23.54;17.09;100955.19;5076508;28;19959;-72
2021/12/13 04:43:58;;;;;;;;;;;;;;;23.53;17.35;100952.69;5075289;28;19943;-71
2021/12/13 04:46:25;;;;;;;;;;;;;;;23.63;17.29;100961.78;5075172;28;19924;-71
2021/12/13 04:48:50;;;;;;;;;;;;;;;23.68;17.06;100977.38;5057178;28;19921;-71
2021/12/13 04:51:16;;;;;;;;;;;;;;;23.68;17.48;100974.66;5057295;28;19917;-71
2021/12/13 04:53:45;;;;;;;;;;;;;;;23.74;17.26;100968.13;5075165;28;20007;-71
2021/12/13 04:56:11;;;;;;;;;;;;;;;23.83;17.29;100962.22;5074851;28;20351;-71
2021/12/13 04:58:37;;;;;;;;;;;;;;;23.87;17.30;100976.97;5074650;28;19928;-71
2021/12/13 05:01:03;;;;;;;;;;;;;;;23.91;17.01;100970.75;5074195;28;19920;-72
2021/12/13 05:03:29;;;;;;;;;;;;;;;23.91;16.80;100954.38;5074389;28;19917;-72
2021/12/13 05:05:57;;;;;;;;;;;;;;;24.02;16.67;100963.44;5073862;28;19916;-70
2021/12/13 05:08:23;;;;;;;;;;;;;;;24.08;16.93;100969.78;5056039;28;20012;-72
2021/12/13 05:10:49;;;;;;;;;;;;;;;24.11;16.76;100970.06;5074336;28;19917;-70
2021/12/13 05:13:16;;;;;;;;;;;;;;;24.16;16.59;100971.97;5073827;28;19917;-70
2021/12/13 05:15:42;;;;;;;;;;;;;;;24.19;16.69;100976.91;5073458;28;19923;-70
2021/12/13 05:18:15;;;;;;;;;;;;;;;24.23;16.55;100969.00;5073329;28;19917;-70
2021/12/13 05:20:41;;;;;;;;;;;;;;;24.25;16.53;100958.66;5073461;28;19916;-71
2021/12/13 05:23:06;;;;;;;;;;;;;;;24.29;16.49;100957.03;5073048;28;19927;-71
2021/12/13 05:25:36;;;;;;;;;;;;;;;24.34;16.46;100968.81;5074035;28;20001;-71
2021/12/13 05:28:22;;;;;;;;;;;;;;;24.34;16.48;100973.47;5073429;28;19917;-71
2021/12/13 05:30:48;;;;;;;;;;;;;;;24.35;16.55;100962.28;5072539;28;19917;-71
2021/12/13 05:33:14;;;;;;;;;;;;;;;24.41;16.43;100957.66;5073191;28;19924;-71
2021/12/13 05:35:41;;;;;;;;;;;;;;;24.41;16.42;100946.72;5073987;28;19916;-71
2021/12/13 05:38:10;;;;;;;;;;;;;;;24.43;16.30;100958.19;5073254;28;19917;-71
2021/12/13 05:40:45;;;;;;;;;;;;;;;24.43;16.42;100952.72;5091749;28;19916;-71
2021/12/13 05:43:31;;;;;;;;;;;;;;;24.49;15.93;100959.88;5093310;28;19920;-71
2021/12/13 05:46:00;;;;;;;;;;;;;;;24.54;16.33;100962.66;5092397;28;20235;-71
2021/12/13 05:48:36;;;;;;;;;;;;;;;24.59;16.36;100952.81;5075430;28;19923;-71
2021/12/13 05:51:03;;;;;;;;;;;;;;;24.62;16.34;100958.56;5093443;28;19946;-71
2021/12/13 05:53:30;;;;;;;;;;;;;;;24.66;16.14;100964.31;5093976;28;19939;-71
2021/12/13 05:55:57;;;;;;;;;;;;;;;24.68;16.51;100973.06;5096026;28;19922;-70
2021/12/13 05:58:49;;;;;;;;;;;;;;;24.68;16.01;100973.06;5097619;28;19927;-70
2021/12/13 06:01:18;;;;;;;;;;;;;;;24.71;16.00;100970.63;5093234;28;20019;-70
2021/12/13 06:04:03;;;;;;;;;;;;;;;24.73;16.19;100973.09;5097184;28;19981;-70
2021/12/13 06:06:28;;;;;;;;;;;;;;;24.75;16.05;100984.59;5015521;28;19917;-71
2021/12/13 06:08:55;;;;;;;;;;;;;;;24.66;16.07;100970.59;5015174;28;19936;-70
2021/12/13 06:11:32;;;;;;;;;;;;;;;24.77;16.07;100971.47;5015267;28;20372;-71
2021/12/13 06:14:16;;;;;;;;;;;;;;;24.83;16.14;100970.38;5015135;28;20291;-72
2021/12/13 06:16:43;;;;;;;;;;;;;;;24.84;16.15;100988.44;5016040;28;19918;-73
2021/12/13 06:19:11;;;;;;;;;;;;;;;24.89;15.96;100985.72;4999029;28;19972;-73
2021/12/13 06:22:09;;;;;;;;;;;;;;;24.87;16.03;100976.13;5015573;28;20368;-71
2021/12/13 06:24:40;;;;;;;;;;;;;;;24.96;15.70;100976.44;4976103;28;19950;-70
2021/12/13 06:27:08;;;;;;;;;;;;;;;24.97;15.90;100972.63;4975975;28;19918;-71
2021/12/13 06:30:02;;;;;;;;;;;;;;;24.96;15.67;100981.88;4975981;28;20338;-71
2021/12/13 06:32:32;;;;;;;;;;;;;;;24.85;16.05;100983.78;4975520;28;19973;-72
2021/12/13 06:34:59;;;;;;;;;;;;;;;24.79;16.39;100985.69;4975605;28;19918;-71
2021/12/13 06:37:30;;;;;;;;;;;;;;;24.83;16.19;100994.97;4975613;28;19918;-71
2021/12/13 06:40:11;;;;;;;;;;;;;;;24.91;15.81;100989.00;4963800;28;20013;-71
2021/12/13 06:42:36;;;;;;;;;;;;;;;24.76;16.11;101002.63;4964325;28;19929;-71
2021/12/13 06:45:01;;;;;;;;;;;;;;;24.41;16.46;101003.28;5017968;28;19921;-71
2021/12/13 06:47:26;;;;;;;;;;;;;;;24.47;16.46;100996.72;5033909;28;19917;-72
2021/12/13 06:49:56;;;;;;;;;;;;;;;24.36;16.66;100998.59;5034019;28;19921;-70
2021/12/13 06:52:23;;;;;;;;;;;;;;;24.40;16.31;100998.88;5034082;28;20000;-69
2021/12/13 06:54:49;;;;;;;;;;;;;;;24.46;16.48;100995.09;5033875;28;19917;-72
2021/12/13 06:57:21;;;;;;;;;;;;;;;24.48;16.11;101004.66;5033758;28;19921;-70
2021/12/13 06:59:48;;;;;;;;;;;;;;;24.60;16.03;100993.53;5041119;28;20004;-69
2021/12/13 07:02:21;;;;;;;;;;;;;;;24.68;15.74;101000.41;5055603;28;19977;-71
2021/12/13 07:04:47;;;;;;;;;;;;;;;24.77;15.83;101001.53;5055753;28;20338;-70
2021/12/13 07:07:13;;;;;;;;;;;;;;;24.88;15.84;101002.38;5055036;28;20012;-71
2021/12/13 07:09:38;;;;;;;;;;;;;;;24.96;15.48;101011.97;5055424;28;19998;-70
2021/12/13 07:12:10;;;;;;;;;;;;;;;25.02;15.69;101005.44;5055400;28;20001;-70
2021/12/13 07:14:38;;;;;;;;;;;;;;;24.88;15.81;101008.66;5055883;28;19916;-71
2021/12/13 07:17:17;;;;;;;;;;;;;;;24.82;15.71;101000.72;5055195;28;20278;-73
2021/12/13 07:19:46;;;;;;;;;;;;;;;24.80;15.78;101000.16;5055964;28;19916;-72
2021/12/13 07:22:22;;;;;;;;;;;;;;;24.78;15.59;100992.22;5055453;28;20012;-72
2021/12/13 07:25:10;;;;;;;;;;;;;;;24.82;15.42;101004.28;5057892;28;19923;-72
2021/12/13 07:27:36;;;;;;;;;;;;;;;24.91;15.42;101010.06;5057070;28;19948;-72
2021/12/13 07:30:08;;;;;;;;;;;;;;;25.19;14.93;101011.50;5055638;28;19923;-72
2021/12/13 07:32:43;;;;;;;;;;;;;;;25.35;14.72;101014.28;5057738;28;19927;-74
2021/12/13 07:35:20;;;;;;;;;;;;;;;25.50;14.63;101011.56;5055466;28;20061;-71
2021/12/13 07:37:50;;;;;;;;;;;;;;;25.61;14.91;101013.22;5054799;28;20359;-71
2021/12/13 07:40:23;;;;;;;;;;;;;;;25.66;14.49;101005.00;5069048;28;19916;-69
2021/12/13 07:43:03;;;;;;;;;;;;;;;25.59;14.77;101015.38;5075484;28;19946;-69
2021/12/13 07:45:31;;;;;;;;;;;;;;;25.54;14.67;101004.44;5078048;28;19920;-72
2021/12/13 07:47:57;;;;;;;;;;;;;;;25.63;14.63;101018.41;5075823;28;19989;-71
2021/12/13 07:50:22;;;;;;;;;;;;;;;25.56;14.59;101026.06;5075216;28;19920;-71
2021/12/13 07:52:52;;;;;;;;;;;;;;;25.64;14.69;101022.78;5075782;28;19916;-69
2021/12/13 07:55:22;;;;;;;;;;;;;;;25.30;15.07;101024.13;5076706;28;20058;-69
2021/12/13 07:57:48;;;;;;;;;;;;;;;25.06;15.44;101036.59;5075793;28;19970;-71
2021/12/13 08:00:18;;;;;;;;;;;;;;;25.05;15.38;101041.25;5076265;28;19916;-71
2021/12/13 08:03:06;;;;;;;;;;;;;;;25.01;15.35;101040.16;5075038;28;19939;-71
2021/12/13 08:05:42;;;;;;;;;;;;;;;25.11;15.48;101036.63;5069555;28;19966;-71
2021/12/13 08:08:08;;;;;;;;;;;;;;;25.24;15.28;101036.13;5075063;28;19938;-71
2021/12/13 08:10:40;;;;;;;;;;;;;;;25.55;14.93;101041.66;5075109;28;19920;-71
2021/12/13 08:13:06;;;;;;;;;;;;;;;25.42;15.28;101050.41;5074701;28;20011;-71
2021/12/13 08:15:32;;;;;;;;;;;;;;;25.57;14.84;101042.22;5075143;28;20366;-71
2021/12/13 08:18:03;;;;;;;;;;;;;;;25.74;14.51;101049.34;5074885;28;19923;-69
2021/12/13 08:20:30;;;;;;;;;;;;;;;25.79;14.53;101054.84;5074718;28;19923;-69
2021/12/13 08:22:55;;;;;;;;;;;;;;;25.87;14.54;101059.75;5091441;28;19924;-69
2021/12/13 08:25:21;;;;;;;;;;;;;;;25.84;14.58;101054.84;5094547;28;19970;-70
2021/12/13 08:28:06;;;;;;;;;;;;;;;25.81;14.48;101055.38;5094658;28;19939;-69
2021/12/13 08:30:42;;;;;;;;;;;;;;;25.75;14.69;101062.78;5094895;28;19926;-69
2021/12/13 08:33:08;;;;;;;;;;;;;;;25.84;14.53;101063.03;5096608;28;20014;-71
2021/12/13 08:35:46;;;;;;;;;;;;;;;26.03;14.66;101055.13;5095424;28;19916;-69
2021/12/13 08:38:11;;;;;;;;;;;;;;;26.11;14.61;101059.22;5095136;28;20293;-70
2021/12/13 08:40:36;;;;;;;;;;;;;;;26.04;14.33;101054.00;5060441;28;19938;-71
2021/12/13 08:43:02;;;;;;;;;;;;;;;25.97;14.35;101048.00;5075996;28;19928;-70
2021/12/13 08:45:32;;;;;;;;;;;;;;;26.08;14.48;101055.13;5057313;28;20354;-69
2021/12/13 08:47:59;;;;;;;;;;;;;;;26.09;14.29;101047.72;5076496;28;19925;-70
2021/12/13 08:50:29;;;;;;;;;;;;;;;26.11;14.54;101043.59;5082357;28;19923;-70
2021/12/13 08:53:15;;;;;;;;;;;;;;;26.19;14.42;101044.97;5069907;28;19920;-71
2021/12/13 08:55:41;;;;;;;;;;;;;;;26.15;14.64;101041.97;5089525;28;19947;-71
2021/12/13 08:58:07;;;;;;;;;;;;;;;26.19;14.34;101045.78;5089108;28;19923;-69
2021/12/13 09:00:41;;;;;;;;;;;;;;;26.28;14.38;101046.03;5091945;28;19916;-71
2021/12/13 09:03:07;;;;;;;;;;;;;;;26.28;14.60;101048.78;5090687;28;19942;-68
2021/12/13 09:05:33;;;;;;;;;;;;;;;26.26;14.42;101044.69;5088345;28;19924;-68
2021/12/13 09:08:04;;;;;;;;;;;;;;;26.27;14.48;101047.16;5086416;28;20245;-69
2021/12/13 09:10:39;;;;;;;;;;;;;;;26.25;14.26;101038.41;5077467;28;20270;-69
2021/12/13 09:13:04;;;;;;;;;;;;;;;26.18;14.38;101035.94;5075604;28;19917;-69
2021/12/13 09:15:31;;;;;;;;;;;;;;;26.22;14.58;101041.69;5079531;28;19936;-69
2021/12/13 09:17:57;;;;;;;;;;;;;;;26.27;14.40;101040.81;5079670;28;19920;-69
2021/12/13 09:20:22;;;;;;;;;;;;;;;26.22;14.22;101027.97;5077974;28;20432;-69
2021/12/13 09:22:49;;;;;;;;;;;;;;;26.22;14.27;101033.47;5076452;28;20381;-69
2021/12/13 09:25:39;;;;;;;;;;;;;;;26.30;14.53;101024.69;5077244;28;19948;-71
2021/12/13 09:28:16;;;;;;;;;;;;;;;26.31;14.21;101020.81;5074305;28;20030;-70
2021/12/13 09:31:08;;;;;;;;;;;;;;;26.33;14.38;101015.06;5080662;28;20354;-70
2021/12/13 09:33:35;;;;;;;;;;;;;;;26.20;14.15;101011.81;5081104;28;19916;-70
2021/12/13 09:36:07;;;;;;;;;;;;;;;26.28;14.34;101021.38;5080698;28;20051;-70
2021/12/13 09:38:44;;;;;;;;;;;;;;;26.34;14.00;101017.53;5080524;28;20369;-70
2021/12/13 09:41:28;;;;;;;;;;;;;;;26.39;14.01;101014.78;5100966;28;19966;-70
2021/12/13 09:43:58;;;;;;;;;;;;;;;26.33;13.99;101021.34;5101028;28;19924;-70
2021/12/13 09:46:28;;;;;;;;;;;;;;;26.33;13.95;101015.06;5100324;28;20014;-70
2021/12/13 09:48:53;;;;;;;;;;;;;;;26.35;13.92;101015.59;5101141;28;20021;-70
2021/12/13 09:51:22;;;;;;;;;;;;;;;26.36;13.96;101015.34;5100423;28;19916;-70
2021/12/13 09:53:50;;;;;;;;;;;;;;;26.38;14.07;101018.59;5101293;28;20354;-70
2021/12/13 09:56:15;;;;;;;;;;;;;;;26.43;14.00;101009.56;5100845;28;19922;-71
2021/12/13 09:58:42;;;;;;;;;;;;;;;26.38;14.18;101021.34;5100628;28;19919;-71
2021/12/13 10:01:10;;;;;;;;;;;;;;;26.40;14.32;101041.06;5100617;28;19996;-70
2021/12/13 10:03:54;;;;;;;;;;;;;;;26.40;14.18;101035.59;5100995;28;19920;-72
2021/12/13 10:06:24;;;;;;;;;;;;;;;26.43;14.11;101035.03;5100736;28;20013;-71
2021/12/13 10:08:54;;;;;;;;;;;;;;;26.47;14.39;101039.97;5100519;28;19916;-71
2021/12/13 10:11:24;;;;;;;;;;;;;;;26.51;14.12;101046.53;5082237;28;19916;-71
2021/12/13 10:13:49;;;;;;;;;;;;;;;26.54;14.15;101027.59;5082033;28;19947;-73
2021/12/13 10:16:16;;;;;;;;;;;;;;;26.50;14.04;101039.41;5081712;28;19916;-71
2021/12/13 10:18:42;;;;;;;;;;;;;;;26.51;14.37;101038.28;5099777;28;19916;-70
2021/12/13 10:21:09;;;;;;;;;;;;;;;26.48;14.06;101036.94;5099741;28;20337;-70
2021/12/13 10:23:35;;;;;;;;;;;;;;;26.54;14.18;101030.34;5099893;28;19916;-70
2021/12/13 10:26:01;;;;;;;;;;;;;;;26.55;14.27;101032.00;5099496;28;20331;-70
2021/12/13 10:28:30;;;;;;;;;;;;;;;26.56;14.15;101030.91;5100004;28;19919;-70
2021/12/13 10:30:57;;;;;;;;;;;;;;;26.50;14.34;101029.25;5099530;28;19916;-70
2021/12/13 10:33:22;;;;;;;;;;;;;;;26.41;14.39;101031.75;5100098;28;19916;-69
2021/12/13 10:35:47;;;;;;;;;;;;;;;26.38;14.31;101036.97;5099119;28;20382;-70
2021/12/13 10:38:15;;;;;;;;;;;;;;;26.42;14.44;101027.94;5099092;28;19916;-69
2021/12/13 10:40:42;;;;;;;;;;;;;;;26.49;14.39;101026.81;5082574;28;19916;-69
2021/12/13 10:43:07;;;;;;;;;;;;;;;26.41;14.52;101026.28;5077673;28;19927;-69
2021/12/13 10:45:34;;;;;;;;;;;;;;;26.51;14.48;101024.59;5079532;28;19928;-70
2021/12/13 10:48:00;;;;;;;;;;;;;;;26.48;14.54;101019.69;5079644;28;19967;-70
2021/12/13 10:50:27;;;;;;;;;;;;;;;26.46;14.48;101028.19;5077139;28;20342;-71
2021/12/13 10:52:53;;;;;;;;;;;;;;;26.37;14.75;101024.38;5076274;28;19927;-69
2021/12/13 10:55:21;;;;;;;;;;;;;;;26.46;14.55;101016.38;5058148;28;19924;-69
2021/12/13 10:57:50;;;;;;;;;;;;;;;26.50;14.47;101029.25;5075780;28;19931;-69
2021/12/13 11:00:20;;;;;;;;;;;;;;;26.48;14.63;101027.91;5075696;28;19917;-69
2021/12/13 11:02:45;;;;;;;;;;;;;;;26.51;14.69;101035.56;5076312;28;19916;-68
2021/12/13 11:05:12;;;;;;;;;;;;;;;26.55;14.63;101025.69;5075980;28;20007;-68
2021/12/13 11:07:37;;;;;;;;;;;;;;;26.52;14.62;101023.50;5075988;28;19925;-68
2021/12/13 11:10:03;;;;;;;;;;;;;;;26.59;14.35;101024.03;5075815;28;19920;-68
2021/12/13 11:12:30;;;;;;;;;;;;;;;26.57;14.49;101024.31;5076062;28;20417;-67
2021/12/13 11:14:56;;;;;;;;;;;;;;;26.57;14.69;101007.03;5075622;28;19935;-67
2021/12/13 11:17:22;;;;;;;;;;;;;;;26.61;14.66;101013.59;5075797;28;20311;-67
2021/12/13 11:19:48;;;;;;;;;;;;;;;26.61;14.39;101017.19;5075569;28;19963;-67
2021/12/13 11:22:15;;;;;;;;;;;;;;;26.61;14.41;101017.19;5075041;28;20293;-69
2021/12/13 11:24:41;;;;;;;;;;;;;;;26.65;14.49;101013.88;5075925;28;19924;-68
2021/12/13 11:27:08;;;;;;;;;;;;;;;26.63;14.51;101011.44;5075165;28;19916;-67
2021/12/13 11:29:34;;;;;;;;;;;;;;;26.67;14.50;101012.50;5057243;28;19950;-68
2021/12/13 11:32:05;;;;;;;;;;;;;;;26.71;14.62;101013.59;5075753;28;19920;-68
2021/12/13 11:34:33;;;;;;;;;;;;;;;26.75;14.82;101014.69;5075511;28;19924;-68
2021/12/13 11:37:17;;;;;;;;;;;;;;;26.64;14.78;101015.81;5075865;28;20354;-68
2021/12/13 11:39:57;;;;;;;;;;;;;;;26.67;15.05;101009.78;5081518;28;19916;-68
2021/12/13 11:42:38;;;;;;;;;;;;;;;26.75;14.77;101005.63;5095348;28;19919;-69
2021/12/13 11:45:09;;;;;;;;;;;;;;;26.75;14.63;101003.72;5095986;28;19924;-67
2021/12/13 11:47:53;;;;;;;;;;;;;;;26.73;14.58;101000.44;5095636;28;19961;-68
2021/12/13 11:50:24;;;;;;;;;;;;;;;26.81;14.93;100993.53;5095381;28;19916;-68
2021/12/13 11:53:04;;;;;;;;;;;;;;;26.77;14.79;100993.28;5094564;28;19923;-67
2021/12/13 11:55:48;;;;;;;;;;;;;;;26.75;14.85;100991.91;5095614;28;20014;-68
2021/12/13 11:58:32;;;;;;;;;;;;;;;26.73;14.95;100992.22;5095300;28;19924;-68
2021/12/13 12:01:01;;;;;;;;;;;;;;;26.81;14.67;100989.97;5095261;28;19968;-68
2021/12/13 12:03:59;;;;;;;;;;;;;;;26.77;14.77;100987.78;5095203;28;19916;-67
2021/12/13 12:06:43;;;;;;;;;;;;;;;26.73;14.75;100978.50;5013013;28;20318;-69
2021/12/13 12:09:16;;;;;;;;;;;;;;;26.76;14.94;100972.44;5012494;28;19918;-68
2021/12/13 12:12:00;;;;;;;;;;;;;;;26.77;14.98;100976.03;4996547;28;19963;-68
2021/12/13 12:14:28;;;;;;;;;;;;;;;26.75;14.79;100987.25;5012613;28;19923;-68
2021/12/13 12:16:53;;;;;;;;;;;;;;;26.78;14.64;100981.19;5013111;28;19933;-68
2021/12/13 12:19:25;;;;;;;;;;;;;;;26.81;14.55;100979.00;5012497;28;20529;-70
2021/12/13 12:22:05;;;;;;;;;;;;;;;26.87;14.68;100983.34;5011792;28;19921;-69
2021/12/13 12:24:35;;;;;;;;;;;;;;;26.89;14.60;100986.63;5012618;28;19921;-69
2021/12/13 12:27:04;;;;;;;;;;;;;;;26.91;14.49;100995.41;5012334;28;19918;-69
2021/12/13 12:29:31;;;;;;;;;;;;;;;26.88;14.57;100995.97;4995642;28;19918;-70
2021/12/13 12:32:00;;;;;;;;;;;;;;;26.87;14.55;100984.19;5012431;28;19949;-69
2021/12/13 12:34:26;;;;;;;;;;;;;;;26.91;14.57;100989.94;5012130;28;19965;-69
2021/12/13 12:36:57;;;;;;;;;;;;;;;26.94;14.54;100984.69;5012461;28;19918;-69
2021/12/13 12:39:37;;;;;;;;;;;;;;;26.93;14.50;100979.50;5012096;28;19918;-69
2021/12/13 12:42:05;;;;;;;;;;;;;;;27.00;14.53;100982.72;5044655;28;19924;-69
2021/12/13 12:44:52;;;;;;;;;;;;;;;26.98;14.68;100979.47;5074646;28;20023;-68
2021/12/13 12:47:17;;;;;;;;;;;;;;;26.97;14.71;100973.16;4992302;28;19933;-69
2021/12/13 12:49:42;;;;;;;;;;;;;;;26.98;14.83;100973.97;4992349;28;19922;-69
2021/12/13 12:52:09;;;;;;;;;;;;;;;26.96;14.84;100978.94;4976149;28;20001;-71
2021/12/13 12:54:35;;;;;;;;;;;;;;;27.01;14.52;100976.16;4992160;28;20328;-69
2021/12/13 12:57:00;;;;;;;;;;;;;;;26.93;14.80;100980.28;4992198;28;19980;-70